Time;durP1;ratioP1;P1;durP2;ratioP2;P2;SDS_P1;SDS_P2;PMS_P1;PMS_P2;Temp;Humidity;BMP_temperature;BMP_pressure;BME280_temperature;BME280_humidity;BME280_pressure;Samples;Min_cycle;Max_cycle;Signal;HPM_P1;HPM_P2
2021/08/03 00:00:57;;;;;;;0.38;0.30;;;21.80;70.90;;;;;;5011937;28;20053;-56
2021/08/03 00:03:29;;;;;;;0.30;0.30;;;21.80;70.90;;;;;;5012235;28;20038;-58
2021/08/03 00:05:58;;;;;;;0.63;0.40;;;21.80;70.90;;;;;;5012105;28;20469;-58
2021/08/03 00:08:27;;;;;;;0.20;0.20;;;21.80;70.90;;;;;;5012749;28;20054;-57
2021/08/03 00:10:54;;;;;;;0.20;0.20;;;21.80;70.90;;;;;;5016583;28;20065;-57
2021/08/03 00:13:20;;;;;;;0.43;0.20;;;21.80;71.00;;;;;;5015419;28;20056;-55
2021/08/03 00:15:54;;;;;;;0.98;0.50;;;21.80;71.00;;;;;;5016318;28;20129;-53
2021/08/03 00:18:20;;;;;;;0.75;0.47;;;21.80;71.00;;;;;;5015368;28;20045;-58
2021/08/03 00:20:46;;;;;;;0.50;0.50;;;21.80;71.00;;;;;;5016048;28;20426;-57
2021/08/03 00:23:14;;;;;;;0.77;0.40;;;21.80;71.00;;;;;;5015861;28;20084;-59
2021/08/03 00:25:40;;;;;;;0.43;0.32;;;21.80;71.00;;;;;;5016300;28;20046;-58
2021/08/03 00:28:07;;;;;;;0.63;0.40;;;21.80;71.10;;;;;;5015609;28;20038;-59
2021/08/03 00:30:33;;;;;;;0.32;0.32;;;21.70;71.00;;;;;;5015815;28;20049;-58
2021/08/03 00:32:59;;;;;;;0.35;0.30;;;21.80;71.10;;;;;;5014837;28;20080;-57
2021/08/03 00:35:25;;;;;;;0.45;0.40;;;21.80;71.10;;;;;;5016017;28;20482;-58
2021/08/03 00:37:51;;;;;;;0.30;0.20;;;21.80;71.10;;;;;;5030390;28;20123;-59
2021/08/03 00:40:18;;;;;;;0.30;0.30;;;21.80;71.10;;;;;;5015659;28;20053;-56
2021/08/03 00:42:44;;;;;;;0.85;0.40;;;21.80;71.10;;;;;;5015936;28;20049;-57
2021/08/03 00:45:10;;;;;;;0.25;0.25;;;21.70;71.00;;;;;;5015089;28;20509;-57
2021/08/03 00:47:36;;;;;;;0.43;0.43;;;21.80;71.10;;;;;;5014810;28;20152;-57
2021/08/03 00:50:03;;;;;;;0.30;0.30;;;21.80;71.10;;;;;;5014932;28;20510;-53
2021/08/03 00:52:28;;;;;;;1.85;0.43;;;21.70;71.10;;;;;;5015444;28;20437;-58
2021/08/03 00:54:55;;;;;;;0.45;0.45;;;21.70;71.10;;;;;;5015457;28;20061;-57
2021/08/03 00:57:21;;;;;;;0.52;0.50;;;21.70;71.10;;;;;;5015175;28;20050;-57
2021/08/03 00:59:46;;;;;;;0.35;0.35;;;21.70;71.10;;;;;;5014951;28;20116;-58
2021/08/03 01:02:12;;;;;;;0.40;0.20;;;21.70;71.10;;;;;;5014985;28;20038;-56
2021/08/03 01:04:38;;;;;;;0.55;0.43;;;21.70;71.10;;;;;;5014713;28;20070;-52
2021/08/03 01:07:11;;;;;;;0.50;0.50;;;21.70;71.10;;;;;;5015064;28;20058;-53
2021/08/03 01:09:46;;;;;;;0.40;0.38;;;21.70;71.10;;;;;;5014841;28;20050;-54
2021/08/03 01:12:32;;;;;;;0.35;0.20;;;21.70;71.10;;;;;;5014928;28;20073;-49
2021/08/03 01:15:30;;;;;;;0.40;0.40;;;21.70;71.10;;;;;;5014505;28;20446;-53
2021/08/03 01:18:11;;;;;;;0.60;0.30;;;21.70;71.20;;;;;;5012057;28;20052;-53
2021/08/03 01:21:22;;;;;;;0.38;0.38;;;21.70;71.20;;;;;;5014436;28;20129;-52
2021/08/03 01:24:12;;;;;;;0.55;0.52;;;21.70;71.10;;;;;;5014869;28;20494;-53
2021/08/03 01:26:56;;;;;;;0.30;0.30;;;21.70;71.20;;;;;;5014525;28;20119;-52
2021/08/03 01:29:25;;;;;;;0.38;0.38;;;21.70;71.20;;;;;;5009586;28;20100;-53
2021/08/03 01:31:56;;;;;;;0.50;0.47;;;21.70;71.20;;;;;;5014916;28;20092;-53
2021/08/03 01:34:26;;;;;;;0.38;0.30;;;21.70;71.20;;;;;;5014099;28;20109;-53
2021/08/03 01:36:55;;;;;;;0.30;0.30;;;21.70;71.30;;;;;;5014270;28;20073;-52
2021/08/03 01:39:27;;;;;;;0.47;0.47;;;21.70;71.30;;;;;;5014649;28;20516;-54
2021/08/03 01:41:55;;;;;;;0.40;0.40;;;21.70;71.30;;;;;;5014299;28;20052;-53
2021/08/03 01:44:22;;;;;;;0.43;0.40;;;21.70;71.30;;;;;;5013881;28;20046;-53
2021/08/03 01:46:49;;;;;;;0.25;0.20;;;21.60;71.30;;;;;;5014800;28;20418;-52
2021/08/03 01:49:20;;;;;;;0.40;0.40;;;21.70;71.30;;;;;;5014381;28;20136;-52
2021/08/03 01:51:47;;;;;;;0.82;0.40;;;21.70;71.30;;;;;;5014176;28;20084;-53
2021/08/03 01:54:14;;;;;;;0.38;0.38;;;21.60;71.30;;;;;;5013985;28;20042;-53
2021/08/03 01:56:43;;;;;;;0.57;0.45;;;21.60;71.30;;;;;;5014331;28;20056;-53
2021/08/03 01:59:10;;;;;;;0.40;0.30;;;21.60;71.30;;;;;;5014153;28;20057;-53
2021/08/03 02:01:38;;;;;;;0.32;0.32;;;21.60;71.30;;;;;;5013691;28;20578;-50
2021/08/03 02:04:04;;;;;;;0.40;0.30;;;21.60;71.30;;;;;;5014210;28;20049;-55
2021/08/03 02:06:30;;;;;;;0.57;0.40;;;21.60;71.30;;;;;;5013740;28;20050;-52
2021/08/03 02:08:58;;;;;;;0.40;0.40;;;21.60;71.30;;;;;;5013462;28;20103;-54
2021/08/03 02:11:34;;;;;;;0.50;0.50;;;21.60;71.30;;;;;;5014145;28;20049;-53
2021/08/03 02:14:00;;;;;;;0.32;0.32;;;21.50;71.30;;;;;;5013793;28;20069;-51
2021/08/03 02:16:26;;;;;;;0.40;0.40;;;21.60;71.30;;;;;;5013850;28;20046;-52
2021/08/03 02:18:52;;;;;;;0.40;0.30;;;21.60;71.40;;;;;;5013940;28;20128;-52
2021/08/03 02:21:21;;;;;;;0.45;0.30;;;21.60;71.40;;;;;;5014013;28;20102;-52
2021/08/03 02:23:48;;;;;;;0.50;0.50;;;21.60;71.40;;;;;;5012876;28;20088;-52
2021/08/03 02:26:14;;;;;;;0.30;0.30;;;21.60;71.40;;;;;;5013581;28;20099;-53
2021/08/03 02:28:41;;;;;;;0.88;0.60;;;21.60;71.40;;;;;;5013388;28;20050;-54
2021/08/03 02:31:17;;;;;;;0.55;0.40;;;21.60;71.40;;;;;;5013607;28;20096;-53
2021/08/03 02:33:55;;;;;;;0.40;0.40;;;21.60;71.40;;;;;;5013399;28;20125;-53
2021/08/03 02:36:24;;;;;;;0.73;0.43;;;21.60;71.40;;;;;;5013474;28;20042;-52
2021/08/03 02:38:56;;;;;;;0.30;0.30;;;21.60;71.40;;;;;;5012889;28;20070;-53
2021/08/03 02:41:26;;;;;;;0.55;0.40;;;21.60;71.40;;;;;;5012402;28;20050;-51
2021/08/03 02:43:53;;;;;;;0.28;0.28;;;21.60;71.40;;;;;;5013410;28;20033;-52
2021/08/03 02:46:23;;;;;;;0.93;0.47;;;21.50;71.40;;;;;;5013068;28;20066;-52
2021/08/03 02:49:01;;;;;;;0.57;0.40;;;21.50;71.40;;;;;;5013400;28;20073;-53
2021/08/03 02:51:30;;;;;;;0.40;0.40;;;21.50;71.40;;;;;;5013263;28;20088;-53
2021/08/03 02:53:58;;;;;;;0.50;0.50;;;21.50;71.40;;;;;;5013135;28;20526;-52
2021/08/03 02:56:27;;;;;;;0.68;0.43;;;21.50;71.40;;;;;;5012385;28;20050;-53
2021/08/03 02:58:57;;;;;;;0.47;0.40;;;21.50;71.40;;;;;;5013288;28;20049;-53
2021/08/03 03:01:28;;;;;;;0.40;0.40;;;21.50;71.40;;;;;;5013390;28;20050;-56
2021/08/03 03:04:00;;;;;;;0.40;0.40;;;21.50;71.40;;;;;;5013117;28;20042;-47
2021/08/03 03:06:26;;;;;;;1.15;0.40;;;21.50;71.40;;;;;;5012398;28;20045;-51
2021/08/03 03:08:53;;;;;;;0.50;0.50;;;21.50;71.40;;;;;;5012972;28;20049;-52
2021/08/03 03:11:20;;;;;;;0.22;0.22;;;21.50;71.40;;;;;;5012864;28;20042;-52
2021/08/03 03:13:52;;;;;;;0.50;0.50;;;21.50;71.40;;;;;;5011710;28;20064;-53
2021/08/03 03:16:19;;;;;;;0.40;0.40;;;21.50;71.50;;;;;;5012566;28;20433;-53
2021/08/03 03:18:46;;;;;;;0.82;0.50;;;21.50;71.40;;;;;;5012948;28;20053;-53
2021/08/03 03:21:16;;;;;;;0.60;0.50;;;21.50;71.50;;;;;;5013094;28;20085;-54
2021/08/03 03:23:43;;;;;;;0.70;0.50;;;21.50;71.40;;;;;;5012818;28;20485;-53
2021/08/03 03:26:09;;;;;;;0.38;0.30;;;21.50;71.50;;;;;;5011925;28;20414;-53
2021/08/03 03:28:39;;;;;;;0.35;0.35;;;21.40;71.40;;;;;;5013173;28;20046;-53
2021/08/03 03:31:05;;;;;;;0.50;0.50;;;21.50;71.50;;;;;;5012974;28;20057;-53
2021/08/03 03:33:34;;;;;;;0.47;0.40;;;21.50;71.50;;;;;;5012867;28;20517;-57
2021/08/03 03:36:01;;;;;;;0.40;0.40;;;21.50;71.40;;;;;;5012875;28;20050;-59
2021/08/03 03:38:30;;;;;;;0.60;0.40;;;21.50;71.50;;;;;;5012364;28;20046;-52
2021/08/03 03:40:57;;;;;;;0.68;0.45;;;21.50;71.50;;;;;;5012548;28;20116;-51
2021/08/03 03:43:23;;;;;;;0.50;0.50;;;21.50;71.50;;;;;;5012462;28;20046;-52
2021/08/03 03:45:55;;;;;;;0.40;0.40;;;21.50;71.50;;;;;;5016093;28;20085;-58
2021/08/03 03:48:25;;;;;;;0.50;0.40;;;21.50;71.60;;;;;;5015364;28;20147;-57
2021/08/03 03:51:00;;;;;;;0.30;0.30;;;21.40;71.50;;;;;;5015737;28;20103;-54
2021/08/03 03:53:34;;;;;;;0.52;0.50;;;21.40;71.50;;;;;;5016167;28;20073;-52
2021/08/03 03:56:04;;;;;;;0.43;0.40;;;21.40;71.50;;;;;;5016833;28;20053;-51
2021/08/03 03:58:36;;;;;;;0.70;0.50;;;21.40;71.50;;;;;;5015539;28;20095;-51
2021/08/03 04:01:02;;;;;;;0.60;0.60;;;21.50;71.50;;;;;;5016470;28;20172;-51
2021/08/03 04:03:30;;;;;;;0.40;0.40;;;21.40;71.50;;;;;;5016320;28;20085;-55
2021/08/03 04:05:57;;;;;;;0.40;0.40;;;21.40;71.50;;;;;;5016620;28;20096;-52
2021/08/03 04:08:23;;;;;;;0.50;0.50;;;21.40;71.50;;;;;;5015564;28;20124;-49
2021/08/03 04:10:48;;;;;;;0.40;0.40;;;21.50;71.50;;;;;;5016573;28;20598;-52
2021/08/03 04:13:15;;;;;;;0.57;0.38;;;21.40;71.50;;;;;;5015544;28;20525;-48
2021/08/03 04:15:41;;;;;;;0.40;0.40;;;21.40;71.50;;;;;;5016302;28;20054;-50
2021/08/03 04:18:07;;;;;;;0.47;0.40;;;21.40;71.50;;;;;;5015848;28;20060;-51
2021/08/03 04:20:33;;;;;;;0.30;0.30;;;21.40;71.50;;;;;;5014406;28;20041;-50
2021/08/03 04:22:59;;;;;;;0.35;0.35;;;21.40;71.50;;;;;;5016173;28;20474;-54
2021/08/03 04:25:25;;;;;;;0.60;0.38;;;21.40;71.50;;;;;;5015964;28;20070;-48
2021/08/03 04:27:51;;;;;;;0.50;0.50;;;21.40;71.50;;;;;;5015475;28;20061;-50
2021/08/03 04:30:17;;;;;;;1.95;0.43;;;21.40;71.50;;;;;;5015185;28;20046;-48
2021/08/03 04:32:43;;;;;;;0.35;0.35;;;21.40;71.50;;;;;;5015472;28;20045;-50
2021/08/03 04:35:11;;;;;;;0.52;0.52;;;21.40;71.90;;;;;;5016182;28;20120;-50
2021/08/03 04:37:44;;;;;;;0.45;0.40;;;21.40;71.60;;;;;;5013872;28;20053;-47
2021/08/03 04:40:12;;;;;;;0.35;0.35;;;21.40;71.60;;;;;;5015819;28;20045;-50
2021/08/03 04:42:38;;;;;;;0.60;0.50;;;21.40;71.50;;;;;;5015849;28;20050;-48
2021/08/03 04:45:06;;;;;;;0.68;0.52;;;21.40;71.60;;;;;;5015064;28;20057;-47
2021/08/03 04:47:32;;;;;;;0.30;0.30;;;21.40;71.60;;;;;;5014973;28;20092;-48
2021/08/03 04:49:58;;;;;;;0.80;0.50;;;21.40;71.60;;;;;;5015463;28;20045;-53
2021/08/03 04:52:23;;;;;;;0.65;0.50;;;21.40;71.60;;;;;;5015256;28;20045;-49
2021/08/03 04:54:49;;;;;;;0.20;0.20;;;21.40;71.60;;;;;;5015256;28;20053;-49
2021/08/03 04:57:15;;;;;;;0.73;0.40;;;21.40;71.60;;;;;;5014925;28;20089;-48
2021/08/03 04:59:40;;;;;;;0.80;0.57;;;21.30;71.50;;;;;;5014863;28;20045;-52
2021/08/03 05:02:06;;;;;;;0.50;0.50;;;21.30;71.50;;;;;;5015010;28;20045;-54
2021/08/03 05:04:37;;;;;;;0.20;0.20;;;21.40;71.60;;;;;;5015085;28;20041;-52
2021/08/03 05:07:04;;;;;;;0.47;0.40;;;21.40;71.60;;;;;;5015115;28;20042;-50
2021/08/03 05:09:30;;;;;;;0.60;0.60;;;21.30;71.50;;;;;;5014567;28;20050;-48
2021/08/03 05:11:56;;;;;;;0.50;0.50;;;21.40;71.60;;;;;;5014900;28;20505;-54
2021/08/03 05:14:22;;;;;;;0.82;0.40;;;21.30;71.60;;;;;;5013913;28;20057;-52
2021/08/03 05:16:48;;;;;;;0.85;0.50;;;21.40;71.60;;;;;;5014168;28;20058;-50
2021/08/03 05:19:14;;;;;;;0.45;0.45;;;21.30;71.60;;;;;;5011662;28;20068;-46
2021/08/03 05:21:40;;;;;;;0.82;0.63;;;21.30;72.20;;;;;;5011526;28;20457;-51
2021/08/03 05:24:06;;;;;;;0.50;0.50;;;21.30;71.60;;;;;;5011088;28;20042;-51
2021/08/03 05:26:31;;;;;;;0.68;0.50;;;21.30;71.60;;;;;;5011354;28;20678;-46
2021/08/03 05:28:58;;;;;;;0.73;0.40;;;21.40;71.70;;;;;;5010975;28;20072;-48
2021/08/03 05:31:24;;;;;;;0.60;0.50;;;21.30;71.60;;;;;;5011214;28;20414;-51
2021/08/03 05:33:50;;;;;;;0.57;0.57;;;21.40;71.70;;;;;;5010553;28;20042;-45
2021/08/03 05:36:15;;;;;;;0.60;0.60;;;21.30;71.60;;;;;;5010974;28;20112;-48
2021/08/03 05:38:41;;;;;;;0.40;0.40;;;21.30;71.60;;;;;;5010136;28;20074;-48
2021/08/03 05:41:07;;;;;;;0.52;0.50;;;21.30;71.60;;;;;;5011065;28;20042;-48
2021/08/03 05:43:32;;;;;;;0.40;0.40;;;21.30;71.60;;;;;;5010758;28;20050;-51
2021/08/03 05:45:58;;;;;;;0.30;0.30;;;21.40;71.70;;;;;;5010538;28;20042;-48
2021/08/03 05:48:24;;;;;;;0.47;0.47;;;21.30;71.60;;;;;;5009661;28;20129;-45
2021/08/03 05:50:49;;;;;;;0.32;0.32;;;21.30;72.30;;;;;;5011262;28;20058;-47
2021/08/03 05:53:15;;;;;;;0.32;0.32;;;21.30;71.60;;;;;;5010804;28;20498;-48
2021/08/03 05:55:41;;;;;;;0.50;0.40;;;21.30;71.60;;;;;;5010558;28;20049;-45
2021/08/03 05:58:07;;;;;;;0.32;0.32;;;21.30;71.60;;;;;;5010533;28;20072;-49
2021/08/03 06:00:33;;;;;;;0.95;0.40;;;21.30;71.60;;;;;;5009653;28;20084;-47
2021/08/03 06:03:05;;;;;;;0.40;0.40;;;21.30;71.70;;;;;;5010307;28;20050;-50
2021/08/03 06:05:35;;;;;;;0.30;0.30;;;21.30;71.60;;;;;;5010243;28;20465;-50
2021/08/03 06:08:07;;;;;;;0.50;0.50;;;21.30;71.70;;;;;;5009930;28;20104;-52
2021/08/03 06:10:34;;;;;;;0.47;0.47;;;21.30;71.70;;;;;;5009941;28;20617;-48
2021/08/03 06:13:01;;;;;;;0.30;0.30;;;21.40;71.80;;;;;;5010036;28;20107;-52
2021/08/03 06:15:28;;;;;;;0.38;0.38;;;21.30;71.70;;;;;;5010170;28;20042;-52
2021/08/03 06:18:10;;;;;;;0.65;0.50;;;21.30;71.70;;;;;;5010344;28;20065;-52
2021/08/03 06:20:38;;;;;;;0.38;0.30;;;21.30;71.70;;;;;;5010051;28;20133;-50
2021/08/03 06:23:05;;;;;;;0.30;0.30;;;21.30;71.70;;;;;;5009826;28;20045;-51
2021/08/03 06:25:31;;;;;;;0.43;0.43;;;21.30;71.70;;;;;;5010373;28;20050;-53
2021/08/03 06:28:00;;;;;;;1.17;0.40;;;21.30;71.70;;;;;;5009441;28;20049;-47
2021/08/03 06:30:27;;;;;;;0.30;0.30;;;21.30;71.70;;;;;;5009640;28;20050;-54
2021/08/03 06:32:54;;;;;;;0.40;0.40;;;21.30;71.70;;;;;;5010565;28;20054;-49
2021/08/03 06:35:21;;;;;;;0.47;0.40;;;21.30;71.70;;;;;;5010869;28;20135;-46
2021/08/03 06:37:47;;;;;;;0.68;0.40;;;21.30;71.70;;;;;;5013121;28;20042;-52
2021/08/03 06:40:13;;;;;;;0.40;0.40;;;21.30;71.70;;;;;;5013172;28;20513;-56
2021/08/03 06:42:51;;;;;;;0.35;0.35;;;21.30;71.70;;;;;;5013566;28;20056;-54
2021/08/03 06:45:26;;;;;;;0.57;0.55;;;21.30;71.70;;;;;;5013893;28;20045;-52
2021/08/03 06:48:13;;;;;;;0.43;0.40;;;21.30;71.70;;;;;;5013275;28;20038;-54
2021/08/03 06:50:49;;;;;;;1.05;0.35;;;21.30;71.70;;;;;;5012679;28;20530;-55
2021/08/03 06:53:16;;;;;;;0.55;0.50;;;21.30;71.80;;;;;;5013398;28;20060;-49
2021/08/03 06:55:45;;;;;;;0.63;0.50;;;21.30;71.80;;;;;;5013623;28;20451;-53
2021/08/03 06:58:28;;;;;;;0.40;0.40;;;21.30;71.80;;;;;;5013169;28;20046;-51
2021/08/03 07:00:56;;;;;;;0.40;0.40;;;21.30;71.70;;;;;;5013428;28;20050;-51
2021/08/03 07:03:24;;;;;;;0.68;0.65;;;21.30;71.80;;;;;;5028512;28;20050;-53
2021/08/03 07:05:53;;;;;;;0.65;0.47;;;21.30;71.70;;;;;;5012816;28;20077;-51
2021/08/03 07:08:20;;;;;;;0.40;0.40;;;21.30;71.70;;;;;;5013557;28;20042;-52
2021/08/03 07:10:49;;;;;;;0.85;0.40;;;21.30;71.70;;;;;;5012552;28;20133;-51
2021/08/03 07:13:17;;;;;;;0.88;0.60;;;21.40;71.80;;;;;;5013255;28;20062;-47
2021/08/03 07:15:45;;;;;;;0.40;0.40;;;21.30;71.80;;;;;;5013250;28;20128;-49
2021/08/03 07:18:12;;;;;;;0.47;0.45;;;21.30;71.70;;;;;;5013002;28;20061;-50
2021/08/03 07:20:41;;;;;;;0.50;0.50;;;21.30;71.70;;;;;;5012264;28;20164;-51
2021/08/03 07:23:09;;;;;;;0.50;0.43;;;21.30;71.70;;;;;;5012837;28;20406;-50
2021/08/03 07:25:35;;;;;;;0.30;0.30;;;21.30;71.70;;;;;;5013156;28;20041;-50
2021/08/03 07:28:01;;;;;;;0.40;0.40;;;21.30;71.70;;;;;;5013194;28;20103;-48
2021/08/03 07:30:26;;;;;;;0.52;0.50;;;21.30;71.70;;;;;;5012540;28;20042;-49
2021/08/03 07:32:52;;;;;;;0.50;0.50;;;21.30;71.70;;;;;;5012897;28;20050;-48
2021/08/03 07:35:18;;;;;;;0.90;0.28;;;21.30;71.70;;;;;;5013012;28;20118;-48
2021/08/03 07:37:44;;;;;;;0.50;0.40;;;21.30;71.70;;;;;;5012578;28;20053;-50
2021/08/03 07:40:10;;;;;;;0.20;0.20;;;21.30;71.70;;;;;;5012898;28;20057;-50
2021/08/03 07:42:36;;;;;;;0.32;0.30;;;21.30;71.70;;;;;;5012671;28;20050;-49
2021/08/03 07:45:03;;;;;;;0.30;0.30;;;21.40;71.70;;;;;;5012550;28;20494;-51
2021/08/03 07:47:29;;;;;;;0.30;0.28;;;21.40;71.70;;;;;;5012855;28;20052;-51
2021/08/03 07:49:55;;;;;;;0.20;0.20;;;21.40;71.70;;;;;;5012762;28;20076;-52
2021/08/03 07:52:21;;;;;;;0.35;0.35;;;21.40;71.70;;;;;;5012601;28;20103;-49
2021/08/03 07:54:47;;;;;;;0.30;0.30;;;21.40;71.60;;;;;;5012132;28;20046;-50
2021/08/03 07:57:13;;;;;;;0.40;0.40;;;21.40;71.60;;;;;;5012671;28;20056;-47
2021/08/03 07:59:38;;;;;;;0.40;0.40;;;21.40;71.60;;;;;;5012887;28;20046;-48
2021/08/03 08:02:04;;;;;;;0.52;0.38;;;21.40;71.60;;;;;;5012358;28;20399;-49
2021/08/03 08:04:30;;;;;;;1.10;0.40;;;21.40;71.50;;;;;;5010850;28;20062;-50
2021/08/03 08:06:55;;;;;;;0.45;0.40;;;21.40;71.50;;;;;;5012776;28;20089;-48
2021/08/03 08:09:21;;;;;;;0.50;0.40;;;21.40;71.50;;;;;;5012279;28;20046;-49
2021/08/03 08:11:47;;;;;;;0.55;0.40;;;21.40;71.50;;;;;;5012964;28;20057;-59
2021/08/03 08:14:12;;;;;;;0.50;0.50;;;21.40;71.30;;;;;;5012100;28;20506;-59
2021/08/03 08:16:38;;;;;;;0.50;0.50;;;21.40;71.30;;;;;;5012302;28;20402;-58
2021/08/03 08:19:04;;;;;;;0.30;0.30;;;21.50;71.30;;;;;;5012679;28;20061;-57
2021/08/03 08:21:33;;;;;;;0.40;0.40;;;21.50;71.20;;;;;;5012426;28;20465;-55
2021/08/03 08:24:03;;;;;;;0.88;0.47;;;21.50;71.20;;;;;;5012241;28;20388;-58
2021/08/03 08:26:30;;;;;;;0.90;0.30;;;21.50;71.10;;;;;;5011959;28;20509;-59
2021/08/03 08:28:56;;;;;;;0.30;0.30;;;21.50;71.10;;;;;;5012539;28;20456;-55
2021/08/03 08:31:22;;;;;;;0.80;0.52;;;21.50;71.10;;;;;;5015942;28;20088;-54
2021/08/03 08:33:47;;;;;;;0.40;0.40;;;21.50;71.10;;;;;;5015777;28;20052;-58
2021/08/03 08:36:13;;;;;;;0.30;0.30;;;21.50;71.00;;;;;;5015618;28;20042;-57
2021/08/03 08:38:39;;;;;;;1.25;0.40;;;21.50;71.00;;;;;;5015909;28;20054;-58
2021/08/03 08:41:05;;;;;;;0.38;0.30;;;21.50;71.00;;;;;;5030760;28;20058;-58
2021/08/03 08:43:31;;;;;;;0.22;0.22;;;21.60;71.10;;;;;;5015932;28;20081;-54
2021/08/03 08:45:57;;;;;;;0.25;0.25;;;21.60;71.10;;;;;;5015264;28;20533;-52
2021/08/03 08:48:23;;;;;;;0.30;0.30;;;21.60;71.10;;;;;;5015894;28;20049;-51
2021/08/03 08:50:56;;;;;;;0.35;0.30;;;21.60;71.10;;;;;;5015731;28;20045;-52
2021/08/03 08:53:27;;;;;;;0.30;0.30;;;21.60;71.10;;;;;;5015795;28;20099;-52
2021/08/03 08:55:52;;;;;;;0.43;0.30;;;21.70;71.10;;;;;;5014913;28;20045;-51
2021/08/03 08:58:18;;;;;;;0.40;0.40;;;21.70;71.10;;;;;;5015418;28;20111;-51
2021/08/03 09:00:44;;;;;;;0.30;0.30;;;21.70;71.10;;;;;;5015787;28;20053;-50
2021/08/03 09:03:10;;;;;;;0.20;0.20;;;21.70;71.10;;;;;;5015621;28;20042;-53
2021/08/03 09:05:37;;;;;;;0.52;0.40;;;21.70;71.10;;;;;;5014778;28;20064;-52
2021/08/03 09:08:04;;;;;;;0.30;0.30;;;21.70;71.00;;;;;;5015523;28;20046;-50
2021/08/03 09:10:35;;;;;;;0.32;0.30;;;21.70;71.00;;;;;;5015572;28;20046;-54
2021/08/03 09:13:03;;;;;;;1.33;0.38;;;21.70;71.00;;;;;;5014807;28;20439;-54
2021/08/03 09:15:30;;;;;;;0.35;0.35;;;21.80;71.00;;;;;;5015183;28;20498;-54
2021/08/03 09:18:23;;;;;;;0.60;0.30;;;21.80;71.00;;;;;;5014672;28;20046;-48
2021/08/03 09:20:50;;;;;;;0.35;0.30;;;21.80;70.90;;;;;;5014533;28;20046;-51
2021/08/03 09:23:16;;;;;;;0.30;0.30;;;21.70;70.90;;;;;;5015350;28;20124;-49
2021/08/03 09:26:01;;;;;;;0.40;0.30;;;21.80;70.90;;;;;;5014776;28;20056;-49
2021/08/03 09:28:26;;;;;;;0.28;0.28;;;21.80;70.90;;;;;;5009679;28;20080;-48
2021/08/03 09:30:54;;;;;;;0.30;0.30;;;21.80;70.90;;;;;;5014950;28;20073;-47
2021/08/03 09:33:22;;;;;;;0.65;0.28;;;21.80;70.90;;;;;;5015236;28;20042;-51
2021/08/03 09:35:49;;;;;;;0.28;0.28;;;21.80;70.80;;;;;;5014673;28;20490;-51
2021/08/03 09:38:17;;;;;;;0.30;0.30;;;21.80;70.80;;;;;;5014470;28;20489;-56
2021/08/03 09:40:43;;;;;;;0.25;0.25;;;21.80;70.80;;;;;;5014075;28;20053;-51
2021/08/03 09:43:12;;;;;;;0.38;0.38;;;21.90;70.80;;;;;;5013987;28;20068;-50
2021/08/03 09:45:43;;;;;;;0.40;0.40;;;21.90;70.80;;;;;;5014730;28;20042;-54
2021/08/03 09:48:18;;;;;;;0.30;0.30;;;21.90;70.80;;;;;;5014154;28;20137;-49
2021/08/03 09:50:51;;;;;;;0.40;0.40;;;21.90;70.70;;;;;;5014828;28;20053;-49
2021/08/03 09:53:41;;;;;;;0.20;0.20;;;21.90;70.70;;;;;;5014472;28;20049;-47
2021/08/03 09:56:09;;;;;;;0.38;0.32;;;21.90;70.70;;;;;;5014204;28;20057;-52
2021/08/03 09:58:52;;;;;;;0.30;0.30;;;21.90;70.70;;;;;;5012829;28;20056;-52
2021/08/03 10:01:34;;;;;;;0.30;0.30;;;21.90;70.60;;;;;;4994795;28;20529;-52
2021/08/03 10:04:03;;;;;;;0.40;0.20;;;22.00;70.60;;;;;;4994933;28;20129;-51
2021/08/03 10:06:29;;;;;;;0.20;0.20;;;21.90;70.60;;;;;;4996306;28;20112;-54
2021/08/03 10:08:56;;;;;;;0.47;0.30;;;22.00;70.60;;;;;;5013870;28;20045;-51
2021/08/03 10:11:23;;;;;;;0.20;0.20;;;22.00;70.60;;;;;;5013883;28;20074;-52
2021/08/03 10:13:49;;;;;;;0.32;0.25;;;22.00;70.50;;;;;;5014161;28;20054;-53
2021/08/03 10:16:15;;;;;;;0.20;0.20;;;22.00;70.50;;;;;;5013744;28;20107;-53
2021/08/03 10:18:43;;;;;;;0.40;0.30;;;22.00;70.50;;;;;;5013696;28;20046;-50
2021/08/03 10:21:29;;;;;;;0.10;0.10;;;22.00;70.50;;;;;;5013597;28;20046;-52
2021/08/03 10:23:59;;;;;;;0.60;0.30;;;22.00;70.40;;;;;;5013728;28;20053;-50
2021/08/03 10:26:25;;;;;;;0.43;0.32;;;22.00;70.50;;;;;;5014013;28;20081;-50
2021/08/03 10:29:24;;;;;;;0.32;0.32;;;22.00;70.40;;;;;;5013672;28;20041;-52
2021/08/03 10:31:50;;;;;;;0.38;0.30;;;22.00;70.30;;;;;;5013200;28;20056;-52
2021/08/03 10:34:43;;;;;;;0.70;0.32;;;22.00;70.40;;;;;;5013904;28;20050;-50
2021/08/03 10:37:10;;;;;;;0.30;0.30;;;22.00;70.30;;;;;;5013195;28;20080;-52
2021/08/03 10:39:55;;;;;;;0.20;0.20;;;22.00;70.30;;;;;;5013875;28;20053;-55
2021/08/03 10:42:26;;;;;;;0.30;0.30;;;22.00;70.30;;;;;;5013586;28;20046;-52
2021/08/03 10:45:00;;;;;;;0.28;0.28;;;22.00;70.30;;;;;;5013548;28;20494;-52
2021/08/03 10:47:36;;;;;;;0.40;0.40;;;22.00;70.30;;;;;;5012810;28;20175;-48
2021/08/03 10:50:06;;;;;;;0.15;0.15;;;22.00;70.30;;;;;;5013591;28;20049;-56
2021/08/03 10:52:53;;;;;;;0.32;0.32;;;22.00;70.30;;;;;;5012650;28;20049;-49
2021/08/03 10:55:41;;;;;;;0.30;0.30;;;22.00;70.30;;;;;;5013497;28;20145;-52
2021/08/03 10:58:09;;;;;;;0.30;0.30;;;22.00;70.20;;;;;;5013148;28;20037;-52
2021/08/03 11:00:54;;;;;;;0.20;0.20;;;22.00;70.30;;;;;;5013608;28;20054;-52
2021/08/03 11:03:34;;;;;;;0.40;0.40;;;22.00;70.20;;;;;;5012487;28;20493;-54
2021/08/03 11:06:06;;;;;;;1.00;0.30;;;22.00;70.20;;;;;;5013175;28;20096;-54
2021/08/03 11:08:44;;;;;;;0.63;0.30;;;22.00;70.20;;;;;;5013032;28;20046;-53
2021/08/03 11:11:23;;;;;;;0.52;0.22;;;22.00;70.20;;;;;;5013297;28;20046;-48
2021/08/03 11:13:54;;;;;;;0.20;0.10;;;22.00;70.20;;;;;;5012787;28;20049;-47
2021/08/03 11:16:20;;;;;;;0.40;0.40;;;22.00;70.20;;;;;;5013414;28;20121;-52
2021/08/03 11:18:48;;;;;;;0.20;0.20;;;22.00;70.20;;;;;;5012249;28;20543;-51
2021/08/03 11:21:15;;;;;;;0.40;0.40;;;22.00;70.80;;;;;;5013203;28;20041;-49
2021/08/03 11:24:16;;;;;;;0.22;0.22;;;22.00;70.10;;;;;;5012993;28;20054;-51
2021/08/03 11:26:53;;;;;;;0.30;0.30;;;22.00;70.10;;;;;;5001044;28;20096;-52
2021/08/03 11:29:33;;;;;;;0.25;0.22;;;22.00;70.20;;;;;;5012901;28;20042;-52
2021/08/03 11:32:04;;;;;;;0.22;0.20;;;22.00;70.20;;;;;;5012951;28;20072;-55
2021/08/03 11:34:34;;;;;;;0.50;0.40;;;22.10;70.20;;;;;;5012305;28;20103;-52
2021/08/03 11:37:03;;;;;;;0.30;0.28;;;22.10;70.20;;;;;;4993375;28;20046;-55
2021/08/03 11:39:32;;;;;;;0.10;0.10;;;22.10;70.20;;;;;;5007426;28;20050;-52
2021/08/03 11:41:58;;;;;;;0.20;0.20;;;22.00;70.20;;;;;;5013053;28;20074;-54
2021/08/03 11:44:24;;;;;;;0.50;0.43;;;22.00;70.20;;;;;;5012967;28;20120;-51
2021/08/03 11:47:16;;;;;;;0.38;0.28;;;22.10;70.20;;;;;;5012575;28;20605;-48
2021/08/03 11:49:42;;;;;;;0.20;0.20;;;22.10;70.20;;;;;;5011093;28;20062;-50
2021/08/03 11:52:16;;;;;;;0.40;0.30;;;22.10;70.20;;;;;;5013082;28;20046;-53
2021/08/03 11:54:45;;;;;;;0.20;0.20;;;22.10;70.20;;;;;;5012927;28;20050;-55
2021/08/03 11:57:25;;;;;;;0.35;0.30;;;22.10;70.30;;;;;;5011163;28;20046;-50
2021/08/03 12:00:28;;;;;;;1.00;0.30;;;22.10;70.30;;;;;;5012151;28;20050;-52
2021/08/03 12:02:56;;;;;;;0.30;0.30;;;22.10;70.20;;;;;;5011707;28;20054;-52
2021/08/03 12:05:30;;;;;;;0.22;0.22;;;22.10;70.20;;;;;;5014360;28;20402;-49
2021/08/03 12:08:09;;;;;;;0.30;0.20;;;22.10;70.20;;;;;;5016260;28;20053;-52
2021/08/03 12:10:38;;;;;;;0.28;0.28;;;22.20;70.20;;;;;;5015968;28;20061;-49
2021/08/03 12:13:06;;;;;;;0.45;0.40;;;22.20;70.20;;;;;;5016446;28;20057;-52
2021/08/03 12:15:44;;;;;;;0.25;0.25;;;22.10;70.10;;;;;;5016430;28;20138;-49
2021/08/03 12:18:10;;;;;;;0.52;0.50;;;22.20;70.10;;;;;;5015978;28;20045;-51
2021/08/03 12:20:42;;;;;;;0.20;0.20;;;22.20;70.10;;;;;;5015597;28;20088;-46
2021/08/03 12:23:18;;;;;;;0.20;0.20;;;22.20;70.10;;;;;;5016300;28;20045;-53
2021/08/03 12:25:46;;;;;;;0.28;0.28;;;22.20;70.70;;;;;;5016313;28;20050;-51
2021/08/03 12:28:25;;;;;;;0.40;0.20;;;22.20;70.00;;;;;;5015795;28;20061;-50
2021/08/03 12:30:51;;;;;;;0.20;0.20;;;22.30;70.10;;;;;;5015634;28;20065;-56
2021/08/03 12:33:33;;;;;;;0.20;0.20;;;22.20;70.00;;;;;;5016205;28;20050;-52
2021/08/03 12:36:06;;;;;;;0.20;0.20;;;22.20;70.00;;;;;;5016053;28;20116;-52
2021/08/03 12:38:33;;;;;;;0.38;0.32;;;22.20;69.90;;;;;;5015705;28;20077;-49
2021/08/03 12:41:12;;;;;;;0.25;0.25;;;22.30;70.70;;;;;;5015792;28;20061;-53
2021/08/03 12:43:39;;;;;;;0.50;0.20;;;22.30;70.00;;;;;;5015890;28;20096;-48
2021/08/03 12:46:05;;;;;;;0.40;0.40;;;22.30;70.00;;;;;;5015828;28;20041;-51
2021/08/03 12:48:31;;;;;;;0.30;0.30;;;22.30;69.90;;;;;;5016203;28;20046;-52
2021/08/03 12:51:01;;;;;;;0.25;0.25;;;22.30;69.90;;;;;;5015204;28;20069;-52
2021/08/03 12:53:30;;;;;;;0.22;0.20;;;22.30;69.90;;;;;;5015493;28;20080;-50
2021/08/03 12:56:06;;;;;;;0.20;0.20;;;22.30;69.80;;;;;;5015588;28;20123;-49
2021/08/03 12:58:44;;;;;;;0.43;0.22;;;22.30;69.80;;;;;;5015623;28;20053;-51
2021/08/03 13:01:22;;;;;;;0.30;0.30;;;22.40;69.80;;;;;;5013910;28;20570;-53